sensor_id;sensor_type;location;lat;lon;timestamp;P1;durP1;ratioP1;P2;durP2;ratioP2
37609;SDS011;23457;51.966;8.230;2022-11-14T00:00:14;45.42;;;20.52;;
37609;SDS011;23457;51.966;8.230;2022-11-14T00:03:00;44.85;;;20.80;;
37609;SDS011;23457;51.966;8.230;2022-11-14T00:05:47;42.33;;;19.95;;
37609;SDS011;23457;51.966;8.230;2022-11-14T00:08:33;40.72;;;20.98;;
37609;SDS011;23457;51.966;8.230;2022-11-14T00:11:18;41.45;;;20.90;;
37609;SDS011;23457;51.966;8.230;2022-11-14T00:14:04;41.80;;;21.48;;
37609;SDS011;23457;51.966;8.230;2022-11-14T00:16:50;42.20;;;20.58;;
37609;SDS011;23457;51.966;8.230;2022-11-14T00:19:35;40.92;;;20.75;;
37609;SDS011;23457;51.966;8.230;2022-11-14T00:22:21;41.38;;;21.10;;
37609;SDS011;23457;51.966;8.230;2022-11-14T00:25:06;39.83;;;20.33;;
37609;SDS011;23457;51.966;8.230;2022-11-14T00:27:53;38.65;;;19.88;;
37609;SDS011;23457;51.966;8.230;2022-11-14T00:30:41;43.28;;;20.38;;
37609;SDS011;23457;51.966;8.230;2022-11-14T00:33:29;39.30;;;20.53;;
37609;SDS011;23457;51.966;8.230;2022-11-14T00:36:14;43.00;;;20.88;;
37609;SDS011;23457;51.966;8.230;2022-11-14T00:39:00;41.38;;;20.90;;
37609;SDS011;23457;51.966;8.230;2022-11-14T00:41:45;42.72;;;20.58;;
37609;SDS011;23457;51.966;8.230;2022-11-14T00:44:31;43.45;;;20.02;;
37609;SDS011;23457;51.966;8.230;2022-11-14T00:47:16;44.30;;;21.75;;
37609;SDS011;23457;51.966;8.230;2022-11-14T00:50:01;41.50;;;20.67;;
37609;SDS011;23457;51.966;8.230;2022-11-14T00:52:47;40.38;;;19.58;;
37609;SDS011;23457;51.966;8.230;2022-11-14T00:55:33;39.50;;;20.30;;
37609;SDS011;23457;51.966;8.230;2022-11-14T00:58:19;41.95;;;21.20;;
37609;SDS011;23457;51.966;8.230;2022-11-14T01:01:04;41.47;;;21.42;;
37609;SDS011;23457;51.966;8.230;2022-11-14T01:03:50;42.90;;;20.27;;
37609;SDS011;23457;51.966;8.230;2022-11-14T01:06:36;41.20;;;19.83;;
37609;SDS011;23457;51.966;8.230;2022-11-14T01:09:21;40.95;;;21.20;;
37609;SDS011;23457;51.966;8.230;2022-11-14T01:12:06;38.80;;;20.50;;
37609;SDS011;23457;51.966;8.230;2022-11-14T01:14:52;42.30;;;20.20;;
37609;SDS011;23457;51.966;8.230;2022-11-14T01:17:37;44.42;;;20.98;;
37609;SDS011;23457;51.966;8.230;2022-11-14T01:20:22;40.28;;;20.17;;
37609;SDS011;23457;51.966;8.230;2022-11-14T01:23:08;37.97;;;18.88;;
37609;SDS011;23457;51.966;8.230;2022-11-14T01:25:59;41.25;;;20.70;;
37609;SDS011;23457;51.966;8.230;2022-11-14T01:28:48;34.90;;;18.33;;
37609;SDS011;23457;51.966;8.230;2022-11-14T01:31:34;38.03;;;19.63;;
37609;SDS011;23457;51.966;8.230;2022-11-14T01:34:19;38.58;;;19.60;;
37609;SDS011;23457;51.966;8.230;2022-11-14T01:37:04;36.20;;;18.95;;
37609;SDS011;23457;51.966;8.230;2022-11-14T01:39:50;39.72;;;20.50;;
37609;SDS011;23457;51.966;8.230;2022-11-14T01:42:35;39.30;;;19.23;;
37609;SDS011;23457;51.966;8.230;2022-11-14T01:51:52;35.35;;;18.05;;
37609;SDS011;23457;51.966;8.230;2022-11-14T01:54:47;36.13;;;18.27;;
37609;SDS011;23457;51.966;8.230;2022-11-14T01:57:36;36.60;;;19.27;;
37609;SDS011;23457;51.966;8.230;2022-11-14T02:00:24;35.08;;;19.52;;
37609;SDS011;23457;51.966;8.230;2022-11-14T02:03:10;39.55;;;18.48;;
37609;SDS011;23457;51.966;8.230;2022-11-14T02:05:58;38.35;;;19.17;;
37609;SDS011;23457;51.966;8.230;2022-11-14T02:08:45;41.58;;;20.15;;
37609;SDS011;23457;51.966;8.230;2022-11-14T02:11:34;41.38;;;20.20;;
37609;SDS011;23457;51.966;8.230;2022-11-14T02:14:23;39.85;;;20.35;;
37609;SDS011;23457;51.966;8.230;2022-11-14T02:17:08;35.42;;;19.02;;
37609;SDS011;23457;51.966;8.230;2022-11-14T02:20:14;38.35;;;19.13;;
37609;SDS011;23457;51.966;8.230;2022-11-14T02:23:04;42.42;;;21.55;;
37609;SDS011;23457;51.966;8.230;2022-11-14T02:25:49;37.30;;;19.23;;
37609;SDS011;23457;51.966;8.230;2022-11-14T02:28:34;37.42;;;18.70;;
37609;SDS011;23457;51.966;8.230;2022-11-14T02:31:20;38.50;;;19.40;;
37609;SDS011;23457;51.966;8.230;2022-11-14T02:34:05;37.15;;;19.65;;
37609;SDS011;23457;51.966;8.230;2022-11-14T02:36:51;43.75;;;20.45;;
37609;SDS011;23457;51.966;8.230;2022-11-14T02:39:36;40.72;;;19.35;;
37609;SDS011;23457;51.966;8.230;2022-11-14T02:42:22;41.83;;;20.35;;
37609;SDS011;23457;51.966;8.230;2022-11-14T02:45:08;37.42;;;19.02;;
37609;SDS011;23457;51.966;8.230;2022-11-14T02:47:55;37.95;;;19.50;;
37609;SDS011;23457;51.966;8.230;2022-11-14T02:50:41;39.20;;;19.30;;
37609;SDS011;23457;51.966;8.230;2022-11-14T02:53:26;35.10;;;18.90;;
37609;SDS011;23457;51.966;8.230;2022-11-14T02:56:11;33.33;;;18.33;;
37609;SDS011;23457;51.966;8.230;2022-11-14T02:58:57;38.70;;;19.58;;
37609;SDS011;23457;51.966;8.230;2022-11-14T03:01:42;37.88;;;18.75;;
37609;SDS011;23457;51.966;8.230;2022-11-14T03:04:27;41.28;;;19.92;;
37609;SDS011;23457;51.966;8.230;2022-11-14T03:07:13;39.70;;;18.38;;
37609;SDS011;23457;51.966;8.230;2022-11-14T03:09:58;35.35;;;18.52;;
37609;SDS011;23457;51.966;8.230;2022-11-14T03:12:43;39.40;;;20.02;;
37609;SDS011;23457;51.966;8.230;2022-11-14T03:15:29;40.90;;;20.85;;
37609;SDS011;23457;51.966;8.230;2022-11-14T03:18:14;39.45;;;19.85;;
37609;SDS011;23457;51.966;8.230;2022-11-14T03:21:06;40.25;;;19.55;;
37609;SDS011;23457;51.966;8.230;2022-11-14T03:23:54;37.50;;;19.50;;
37609;SDS011;23457;51.966;8.230;2022-11-14T03:26:39;40.75;;;20.73;;
37609;SDS011;23457;51.966;8.230;2022-11-14T03:29:25;38.50;;;19.00;;
37609;SDS011;23457;51.966;8.230;2022-11-14T03:32:10;34.50;;;19.73;;
37609;SDS011;23457;51.966;8.230;2022-11-14T03:34:55;36.03;;;19.63;;
37609;SDS011;23457;51.966;8.230;2022-11-14T03:37:40;37.97;;;19.33;;
37609;SDS011;23457;51.966;8.230;2022-11-14T03:40:26;38.22;;;19.13;;
37609;SDS011;23457;51.966;8.230;2022-11-14T03:43:11;40.05;;;20.00;;
37609;SDS011;23457;51.966;8.230;2022-11-14T03:45:57;40.28;;;19.92;;
37609;SDS011;23457;51.966;8.230;2022-11-14T03:48:43;36.53;;;19.13;;
37609;SDS011;23457;51.966;8.230;2022-11-14T03:51:29;37.33;;;18.25;;
37609;SDS011;23457;51.966;8.230;2022-11-14T03:54:14;37.75;;;19.02;;
37609;SDS011;23457;51.966;8.230;2022-11-14T03:57:00;37.95;;;19.35;;
37609;SDS011;23457;51.966;8.230;2022-11-14T03:59:45;36.90;;;19.02;;
37609;SDS011;23457;51.966;8.230;2022-11-14T04:02:30;35.17;;;18.90;;
37609;SDS011;23457;51.966;8.230;2022-11-14T04:05:15;40.17;;;19.45;;
37609;SDS011;23457;51.966;8.230;2022-11-14T04:08:03;33.65;;;18.95;;
37609;SDS011;23457;51.966;8.230;2022-11-14T04:10:49;37.08;;;18.70;;
37609;SDS011;23457;51.966;8.230;2022-11-14T04:13:34;37.08;;;19.17;;
37609;SDS011;23457;51.966;8.230;2022-11-14T04:16:20;41.08;;;19.13;;
37609;SDS011;23457;51.966;8.230;2022-11-14T04:19:05;37.17;;;18.08;;
37609;SDS011;23457;51.966;8.230;2022-11-14T04:21:50;38.70;;;19.60;;
37609;SDS011;23457;51.966;8.230;2022-11-14T04:24:35;40.45;;;19.92;;
37609;SDS011;23457;51.966;8.230;2022-11-14T04:27:20;39.05;;;19.00;;
37609;SDS011;23457;51.966;8.230;2022-11-14T04:30:06;35.33;;;19.27;;
37609;SDS011;23457;51.966;8.230;2022-11-14T04:32:51;38.38;;;20.35;;
37609;SDS011;23457;51.966;8.230;2022-11-14T04:35:37;38.15;;;18.83;;
37609;SDS011;23457;51.966;8.230;2022-11-14T04:38:22;40.22;;;19.33;;
37609;SDS011;23457;51.966;8.230;2022-11-14T04:41:07;39.25;;;19.45;;
37609;SDS011;23457;51.966;8.230;2022-11-14T04:43:53;38.65;;;20.00;;
37609;SDS011;23457;51.966;8.230;2022-11-14T04:46:38;36.45;;;19.08;;
37609;SDS011;23457;51.966;8.230;2022-11-14T04:49:23;36.70;;;19.85;;
37609;SDS011;23457;51.966;8.230;2022-11-14T04:52:09;39.67;;;20.15;;
37609;SDS011;23457;51.966;8.230;2022-11-14T04:54:54;40.42;;;20.05;;
37609;SDS011;23457;51.966;8.230;2022-11-14T04:57:39;36.67;;;19.25;;
37609;SDS011;23457;51.966;8.230;2022-11-14T05:00:24;39.85;;;20.80;;
37609;SDS011;23457;51.966;8.230;2022-11-14T05:03:09;37.88;;;19.35;;
37609;SDS011;23457;51.966;8.230;2022-11-14T05:05:59;39.10;;;19.02;;
37609;SDS011;23457;51.966;8.230;2022-11-14T05:08:44;34.35;;;18.23;;
37609;SDS011;23457;51.966;8.230;2022-11-14T05:11:30;39.97;;;19.67;;
37609;SDS011;23457;51.966;8.230;2022-11-14T05:14:15;35.55;;;19.42;;
37609;SDS011;23457;51.966;8.230;2022-11-14T05:17:00;37.20;;;19.23;;
37609;SDS011;23457;51.966;8.230;2022-11-14T05:19:46;34.40;;;18.35;;
37609;SDS011;23457;51.966;8.230;2022-11-14T05:22:31;34.80;;;18.60;;
37609;SDS011;23457;51.966;8.230;2022-11-14T05:25:16;37.55;;;18.42;;
37609;SDS011;23457;51.966;8.230;2022-11-14T05:28:01;36.15;;;18.38;;
37609;SDS011;23457;51.966;8.230;2022-11-14T05:30:47;38.20;;;18.42;;
37609;SDS011;23457;51.966;8.230;2022-11-14T05:33:33;36.53;;;19.30;;
37609;SDS011;23457;51.966;8.230;2022-11-14T05:36:18;38.67;;;19.65;;
37609;SDS011;23457;51.966;8.230;2022-11-14T05:39:03;36.35;;;19.25;;
37609;SDS011;23457;51.966;8.230;2022-11-14T05:41:49;39.70;;;20.58;;
37609;SDS011;23457;51.966;8.230;2022-11-14T05:44:34;37.35;;;18.85;;
37609;SDS011;23457;51.966;8.230;2022-11-14T05:47:19;37.47;;;18.98;;
37609;SDS011;23457;51.966;8.230;2022-11-14T05:50:05;38.83;;;20.02;;
37609;SDS011;23457;51.966;8.230;2022-11-14T05:52:51;38.40;;;19.52;;
37609;SDS011;23457;51.966;8.230;2022-11-14T05:55:36;37.13;;;20.35;;
37609;SDS011;23457;51.966;8.230;2022-11-14T05:58:21;41.72;;;19.20;;
37609;SDS011;23457;51.966;8.230;2022-11-14T06:01:11;42.28;;;20.30;;
37609;SDS011;23457;51.966;8.230;2022-11-14T06:03:58;41.45;;;21.15;;
37609;SDS011;23457;51.966;8.230;2022-11-14T06:06:43;37.83;;;21.45;;
37609;SDS011;23457;51.966;8.230;2022-11-14T06:09:28;39.80;;;20.60;;
37609;SDS011;23457;51.966;8.230;2022-11-14T06:12:13;42.80;;;21.38;;
37609;SDS011;23457;51.966;8.230;2022-11-14T06:14:59;40.85;;;21.27;;
37609;SDS011;23457;51.966;8.230;2022-11-14T06:17:44;41.90;;;20.42;;
37609;SDS011;23457;51.966;8.230;2022-11-14T06:20:29;38.25;;;20.45;;
37609;SDS011;23457;51.966;8.230;2022-11-14T06:23:14;42.47;;;24.13;;
37609;SDS011;23457;51.966;8.230;2022-11-14T06:26:06;43.15;;;23.10;;
37609;SDS011;23457;51.966;8.230;2022-11-14T06:28:57;41.83;;;21.30;;
37609;SDS011;23457;51.966;8.230;2022-11-14T06:31:42;37.45;;;19.60;;
37609;SDS011;23457;51.966;8.230;2022-11-14T06:34:27;39.17;;;20.15;;
37609;SDS011;23457;51.966;8.230;2022-11-14T06:37:13;37.22;;;21.13;;
37609;SDS011;23457;51.966;8.230;2022-11-14T06:39:58;40.25;;;19.40;;
37609;SDS011;23457;51.966;8.230;2022-11-14T06:42:43;38.22;;;21.00;;
37609;SDS011;23457;51.966;8.230;2022-11-14T06:45:29;41.70;;;21.35;;
37609;SDS011;23457;51.966;8.230;2022-11-14T06:48:14;42.38;;;20.77;;
37609;SDS011;23457;51.966;8.230;2022-11-14T06:51:00;43.83;;;21.08;;
37609;SDS011;23457;51.966;8.230;2022-11-14T06:53:45;38.45;;;21.52;;
37609;SDS011;23457;51.966;8.230;2022-11-14T06:56:31;37.47;;;20.35;;
37609;SDS011;23457;51.966;8.230;2022-11-14T06:59:16;38.10;;;19.98;;
37609;SDS011;23457;51.966;8.230;2022-11-14T07:02:01;33.72;;;19.02;;
37609;SDS011;23457;51.966;8.230;2022-11-14T07:04:47;36.90;;;20.27;;
37609;SDS011;23457;51.966;8.230;2022-11-14T07:07:32;39.30;;;20.23;;
37609;SDS011;23457;51.966;8.230;2022-11-14T07:10:18;36.53;;;19.00;;
37609;SDS011;23457;51.966;8.230;2022-11-14T07:13:03;38.03;;;20.02;;
37609;SDS011;23457;51.966;8.230;2022-11-14T07:15:51;38.58;;;19.90;;
37609;SDS011;23457;51.966;8.230;2022-11-14T07:18:37;37.33;;;18.95;;
37609;SDS011;23457;51.966;8.230;2022-11-14T07:21:23;34.05;;;18.45;;
37609;SDS011;23457;51.966;8.230;2022-11-14T07:24:09;34.92;;;18.58;;
37609;SDS011;23457;51.966;8.230;2022-11-14T07:26:54;36.58;;;18.92;;
37609;SDS011;23457;51.966;8.230;2022-11-14T07:29:40;34.42;;;18.20;;
37609;SDS011;23457;51.966;8.230;2022-11-14T07:32:25;34.88;;;17.95;;
37609;SDS011;23457;51.966;8.230;2022-11-14T07:35:11;37.70;;;19.15;;
37609;SDS011;23457;51.966;8.230;2022-11-14T07:38:03;35.85;;;18.23;;
37609;SDS011;23457;51.966;8.230;2022-11-14T07:41:07;34.78;;;18.33;;
37609;SDS011;23457;51.966;8.230;2022-11-14T07:43:55;32.78;;;18.23;;
37609;SDS011;23457;51.966;8.230;2022-11-14T07:46:41;34.95;;;19.10;;
37609;SDS011;23457;51.966;8.230;2022-11-14T07:49:26;37.17;;;18.92;;
37609;SDS011;23457;51.966;8.230;2022-11-14T07:52:11;32.22;;;18.05;;
37609;SDS011;23457;51.966;8.230;2022-11-14T07:54:57;29.15;;;16.63;;
37609;SDS011;23457;51.966;8.230;2022-11-14T07:57:42;27.10;;;17.35;;
37609;SDS011;23457;51.966;8.230;2022-11-14T08:00:33;31.48;;;16.98;;
37609;SDS011;23457;51.966;8.230;2022-11-14T08:03:18;29.88;;;17.05;;
37609;SDS011;23457;51.966;8.230;2022-11-14T08:06:08;31.15;;;17.27;;
37609;SDS011;23457;51.966;8.230;2022-11-14T08:08:56;30.48;;;17.27;;
37609;SDS011;23457;51.966;8.230;2022-11-14T08:11:41;32.80;;;17.98;;
37609;SDS011;23457;51.966;8.230;2022-11-14T08:14:33;27.23;;;15.73;;
37609;SDS011;23457;51.966;8.230;2022-11-14T08:17:19;26.50;;;14.95;;
37609;SDS011;23457;51.966;8.230;2022-11-14T08:20:06;27.35;;;15.93;;
37609;SDS011;23457;51.966;8.230;2022-11-14T08:23:00;26.63;;;15.70;;
37609;SDS011;23457;51.966;8.230;2022-11-14T08:25:51;28.48;;;15.48;;
37609;SDS011;23457;51.966;8.230;2022-11-14T08:28:36;27.63;;;16.67;;
37609;SDS011;23457;51.966;8.230;2022-11-14T08:31:21;25.65;;;15.65;;
37609;SDS011;23457;51.966;8.230;2022-11-14T08:34:07;25.10;;;15.18;;
37609;SDS011;23457;51.966;8.230;2022-11-14T08:36:52;24.13;;;14.80;;
37609;SDS011;23457;51.966;8.230;2022-11-14T08:39:37;24.58;;;15.13;;
37609;SDS011;23457;51.966;8.230;2022-11-14T08:42:22;26.17;;;15.98;;
37609;SDS011;23457;51.966;8.230;2022-11-14T08:45:07;24.70;;;15.18;;
37609;SDS011;23457;51.966;8.230;2022-11-14T08:47:53;25.85;;;15.18;;
37609;SDS011;23457;51.966;8.230;2022-11-14T08:50:38;25.15;;;14.80;;
37609;SDS011;23457;51.966;8.230;2022-11-14T08:53:25;25.65;;;15.38;;
37609;SDS011;23457;51.966;8.230;2022-11-14T08:56:10;23.48;;;14.30;;
37609;SDS011;23457;51.966;8.230;2022-11-14T08:58:55;28.40;;;14.93;;
37609;SDS011;23457;51.966;8.230;2022-11-14T09:01:41;23.80;;;14.45;;
37609;SDS011;23457;51.966;8.230;2022-11-14T09:04:27;24.63;;;15.13;;
37609;SDS011;23457;51.966;8.230;2022-11-14T09:07:12;23.92;;;15.00;;
37609;SDS011;23457;51.966;8.230;2022-11-14T09:09:57;24.95;;;15.18;;
37609;SDS011;23457;51.966;8.230;2022-11-14T09:12:43;24.77;;;15.32;;
37609;SDS011;23457;51.966;8.230;2022-11-14T09:15:28;27.75;;;15.68;;
37609;SDS011;23457;51.966;8.230;2022-11-14T09:18:14;27.90;;;15.23;;
37609;SDS011;23457;51.966;8.230;2022-11-14T09:21:00;29.05;;;16.00;;
37609;SDS011;23457;51.966;8.230;2022-11-14T09:23:50;23.17;;;15.45;;
37609;SDS011;23457;51.966;8.230;2022-11-14T09:26:35;24.13;;;15.15;;
37609;SDS011;23457;51.966;8.230;2022-11-14T09:29:20;25.08;;;14.95;;
37609;SDS011;23457;51.966;8.230;2022-11-14T09:32:05;23.08;;;14.82;;
37609;SDS011;23457;51.966;8.230;2022-11-14T09:34:51;24.05;;;14.85;;
37609;SDS011;23457;51.966;8.230;2022-11-14T09:37:36;24.08;;;14.68;;
37609;SDS011;23457;51.966;8.230;2022-11-14T09:40:21;21.63;;;14.23;;
37609;SDS011;23457;51.966;8.230;2022-11-14T09:43:31;23.48;;;14.50;;
37609;SDS011;23457;51.966;8.230;2022-11-14T09:46:16;24.15;;;14.55;;
37609;SDS011;23457;51.966;8.230;2022-11-14T09:49:03;23.83;;;14.60;;
37609;SDS011;23457;51.966;8.230;2022-11-14T09:52:00;26.15;;;14.82;;
37609;SDS011;23457;51.966;8.230;2022-11-14T09:54:58;23.63;;;15.07;;
37609;SDS011;23457;51.966;8.230;2022-11-14T09:57:48;21.88;;;14.15;;
37609;SDS011;23457;51.966;8.230;2022-11-14T10:00:38;23.08;;;14.48;;
37609;SDS011;23457;51.966;8.230;2022-11-14T10:10:25;21.90;;;14.40;;
37609;SDS011;23457;51.966;8.230;2022-11-14T10:13:41;23.55;;;13.63;;
37609;SDS011;23457;51.966;8.230;2022-11-14T10:26:30;23.90;;;14.02;;
37609;SDS011;23457;51.966;8.230;2022-11-14T10:29:38;20.15;;;13.23;;
37609;SDS011;23457;51.966;8.230;2022-11-14T10:35:48;22.17;;;13.90;;
37609;SDS011;23457;51.966;8.230;2022-11-14T10:39:25;21.00;;;13.52;;
37609;SDS011;23457;51.966;8.230;2022-11-14T10:42:02;18.15;;;12.45;;
37609;SDS011;23457;51.966;8.230;2022-11-14T10:51:25;21.45;;;12.82;;
37609;SDS011;23457;51.966;8.230;2022-11-14T10:57:29;20.25;;;11.98;;
37609;SDS011;23457;51.966;8.230;2022-11-14T11:00:16;20.15;;;12.70;;
37609;SDS011;23457;51.966;8.230;2022-11-14T11:03:05;19.58;;;11.95;;
37609;SDS011;23457;51.966;8.230;2022-11-14T11:05:52;24.00;;;13.23;;
37609;SDS011;23457;51.966;8.230;2022-11-14T11:08:41;20.73;;;12.70;;
37609;SDS011;23457;51.966;8.230;2022-11-14T11:11:54;19.85;;;12.50;;
37609;SDS011;23457;51.966;8.230;2022-11-14T11:14:41;20.98;;;13.23;;
37609;SDS011;23457;51.966;8.230;2022-11-14T11:17:28;20.38;;;12.98;;
37609;SDS011;23457;51.966;8.230;2022-11-14T11:20:28;19.63;;;12.40;;
37609;SDS011;23457;51.966;8.230;2022-11-14T11:29:02;17.65;;;12.05;;
37609;SDS011;23457;51.966;8.230;2022-11-14T11:31:54;18.17;;;12.68;;
37609;SDS011;23457;51.966;8.230;2022-11-14T11:34:41;20.85;;;13.15;;
37609;SDS011;23457;51.966;8.230;2022-11-14T11:37:28;18.95;;;12.52;;
37609;SDS011;23457;51.966;8.230;2022-11-14T11:40:21;20.25;;;12.95;;
37609;SDS011;23457;51.966;8.230;2022-11-14T11:43:17;17.42;;;12.30;;
37609;SDS011;23457;51.966;8.230;2022-11-14T11:52:44;16.95;;;12.07;;
37609;SDS011;23457;51.966;8.230;2022-11-14T11:55:33;17.75;;;11.65;;
37609;SDS011;23457;51.966;8.230;2022-11-14T12:01:33;17.98;;;11.75;;
37609;SDS011;23457;51.966;8.230;2022-11-14T12:04:19;19.83;;;11.93;;
37609;SDS011;23457;51.966;8.230;2022-11-14T12:07:11;18.02;;;11.63;;
37609;SDS011;23457;51.966;8.230;2022-11-14T12:10:01;17.35;;;11.15;;
37609;SDS011;23457;51.966;8.230;2022-11-14T12:29:04;16.83;;;11.55;;
37609;SDS011;23457;51.966;8.230;2022-11-14T12:32:11;16.98;;;11.07;;
37609;SDS011;23457;51.966;8.230;2022-11-14T12:35:03;18.20;;;11.23;;
37609;SDS011;23457;51.966;8.230;2022-11-14T12:37:51;16.30;;;11.55;;
37609;SDS011;23457;51.966;8.230;2022-11-14T12:40:40;17.88;;;12.00;;
37609;SDS011;23457;51.966;8.230;2022-11-14T12:43:34;18.92;;;11.70;;
37609;SDS011;23457;51.966;8.230;2022-11-14T12:46:25;20.30;;;12.20;;
37609;SDS011;23457;51.966;8.230;2022-11-14T12:58:16;21.40;;;12.38;;
37609;SDS011;23457;51.966;8.230;2022-11-14T13:01:07;18.60;;;13.00;;
37609;SDS011;23457;51.966;8.230;2022-11-14T13:04:02;17.50;;;11.95;;
37609;SDS011;23457;51.966;8.230;2022-11-14T13:10:22;16.27;;;12.15;;
37609;SDS011;23457;51.966;8.230;2022-11-14T13:13:14;19.00;;;12.43;;
37609;SDS011;23457;51.966;8.230;2022-11-14T13:16:23;19.40;;;13.07;;
37609;SDS011;23457;51.966;8.230;2022-11-14T13:19:33;16.83;;;11.93;;
37609;SDS011;23457;51.966;8.230;2022-11-14T13:22:41;20.40;;;12.60;;
37609;SDS011;23457;51.966;8.230;2022-11-14T13:25:27;19.00;;;12.63;;
37609;SDS011;23457;51.966;8.230;2022-11-14T13:31:44;20.80;;;12.73;;
37609;SDS011;23457;51.966;8.230;2022-11-14T13:34:47;18.15;;;12.20;;
37609;SDS011;23457;51.966;8.230;2022-11-14T13:37:56;17.50;;;11.40;;
37609;SDS011;23457;51.966;8.230;2022-11-14T13:40:48;16.88;;;11.15;;
37609;SDS011;23457;51.966;8.230;2022-11-14T13:50:25;17.50;;;11.20;;
37609;SDS011;23457;51.966;8.230;2022-11-14T13:53:21;17.67;;;10.93;;
37609;SDS011;23457;51.966;8.230;2022-11-14T13:56:13;14.20;;;10.05;;
37609;SDS011;23457;51.966;8.230;2022-11-14T14:02:17;14.60;;;10.30;;
37609;SDS011;23457;51.966;8.230;2022-11-14T14:16:59;13.85;;;9.57;;
37609;SDS011;23457;51.966;8.230;2022-11-14T14:19:55;14.77;;;10.38;;
37609;SDS011;23457;51.966;8.230;2022-11-14T14:31:49;15.80;;;10.32;;
37609;SDS011;23457;51.966;8.230;2022-11-14T14:34:35;15.60;;;10.45;;
37609;SDS011;23457;51.966;8.230;2022-11-14T14:37:25;13.55;;;10.18;;
37609;SDS011;23457;51.966;8.230;2022-11-14T14:43:11;16.20;;;11.20;;
37609;SDS011;23457;51.966;8.230;2022-11-14T14:46:07;15.98;;;10.35;;
37609;SDS011;23457;51.966;8.230;2022-11-14T14:48:53;16.77;;;11.00;;
37609;SDS011;23457;51.966;8.230;2022-11-14T14:51:39;14.52;;;10.10;;
37609;SDS011;23457;51.966;8.230;2022-11-14T14:54:27;17.13;;;11.85;;
37609;SDS011;23457;51.966;8.230;2022-11-14T14:57:16;19.42;;;11.68;;
37609;SDS011;23457;51.966;8.230;2022-11-14T15:00:16;16.63;;;10.77;;
37609;SDS011;23457;51.966;8.230;2022-11-14T15:03:05;16.13;;;11.00;;
37609;SDS011;23457;51.966;8.230;2022-11-14T15:05:57;17.67;;;11.50;;
37609;SDS011;23457;51.966;8.230;2022-11-14T15:08:47;16.48;;;11.77;;
37609;SDS011;23457;51.966;8.230;2022-11-14T15:11:34;17.02;;;11.23;;
37609;SDS011;23457;51.966;8.230;2022-11-14T15:14:24;14.88;;;10.15;;
37609;SDS011;23457;51.966;8.230;2022-11-14T15:17:12;21.73;;;11.38;;
37609;SDS011;23457;51.966;8.230;2022-11-14T15:19:59;14.90;;;10.35;;
37609;SDS011;23457;51.966;8.230;2022-11-14T15:23:00;16.77;;;10.55;;
37609;SDS011;23457;51.966;8.230;2022-11-14T15:25:46;15.90;;;10.65;;
37609;SDS011;23457;51.966;8.230;2022-11-14T15:28:32;16.75;;;11.32;;
37609;SDS011;23457;51.966;8.230;2022-11-14T15:31:18;19.10;;;11.45;;
37609;SDS011;23457;51.966;8.230;2022-11-14T15:34:18;17.88;;;12.63;;
37609;SDS011;23457;51.966;8.230;2022-11-14T15:40:13;16.80;;;10.60;;
37609;SDS011;23457;51.966;8.230;2022-11-14T15:43:25;20.33;;;10.93;;
37609;SDS011;23457;51.966;8.230;2022-11-14T15:49:22;16.27;;;10.45;;
37609;SDS011;23457;51.966;8.230;2022-11-14T15:52:16;17.30;;;10.98;;
37609;SDS011;23457;51.966;8.230;2022-11-14T15:55:12;19.10;;;10.38;;
37609;SDS011;23457;51.966;8.230;2022-11-14T15:58:02;15.65;;;10.82;;
37609;SDS011;23457;51.966;8.230;2022-11-14T16:01:12;19.00;;;10.80;;
37609;SDS011;23457;51.966;8.230;2022-11-14T16:04:03;17.50;;;10.32;;
37609;SDS011;23457;51.966;8.230;2022-11-14T16:06:49;18.70;;;11.15;;
37609;SDS011;23457;51.966;8.230;2022-11-14T16:09:34;17.35;;;10.00;;
37609;SDS011;23457;51.966;8.230;2022-11-14T16:12:19;15.70;;;10.43;;
37609;SDS011;23457;51.966;8.230;2022-11-14T16:15:05;16.00;;;9.60;;
37609;SDS011;23457;51.966;8.230;2022-11-14T16:17:50;16.48;;;10.13;;
37609;SDS011;23457;51.966;8.230;2022-11-14T16:20:36;16.27;;;9.98;;
37609;SDS011;23457;51.966;8.230;2022-11-14T16:23:23;14.20;;;9.95;;
37609;SDS011;23457;51.966;8.230;2022-11-14T16:26:08;15.77;;;10.43;;
37609;SDS011;23457;51.966;8.230;2022-11-14T16:28:53;14.85;;;9.80;;
37609;SDS011;23457;51.966;8.230;2022-11-14T16:31:41;15.40;;;10.18;;
37609;SDS011;23457;51.966;8.230;2022-11-14T16:34:26;14.93;;;9.95;;
37609;SDS011;23457;51.966;8.230;2022-11-14T16:37:12;16.83;;;10.10;;
37609;SDS011;23457;51.966;8.230;2022-11-14T16:39:58;21.80;;;11.88;;
37609;SDS011;23457;51.966;8.230;2022-11-14T16:42:44;17.90;;;11.32;;
37609;SDS011;23457;51.966;8.230;2022-11-14T16:45:30;17.63;;;10.75;;
37609;SDS011;23457;51.966;8.230;2022-11-14T16:48:15;17.10;;;10.98;;
37609;SDS011;23457;51.966;8.230;2022-11-14T16:51:01;17.73;;;11.57;;
37609;SDS011;23457;51.966;8.230;2022-11-14T16:54:04;25.30;;;16.40;;
37609;SDS011;23457;51.966;8.230;2022-11-14T16:56:51;23.42;;;14.18;;
37609;SDS011;23457;51.966;8.230;2022-11-14T16:59:36;21.02;;;14.00;;
37609;SDS011;23457;51.966;8.230;2022-11-14T17:02:22;20.05;;;13.23;;
37609;SDS011;23457;51.966;8.230;2022-11-14T17:05:08;17.80;;;11.57;;
37609;SDS011;23457;51.966;8.230;2022-11-14T17:07:56;16.20;;;10.77;;
37609;SDS011;23457;51.966;8.230;2022-11-14T17:10:42;17.98;;;11.38;;
37609;SDS011;23457;51.966;8.230;2022-11-14T17:13:28;24.08;;;13.68;;
37609;SDS011;23457;51.966;8.230;2022-11-14T17:16:16;53.60;;;22.48;;
37609;SDS011;23457;51.966;8.230;2022-11-14T17:19:02;91.60;;;36.05;;
37609;SDS011;23457;51.966;8.230;2022-11-14T17:21:47;38.28;;;19.45;;
37609;SDS011;23457;51.966;8.230;2022-11-14T17:24:33;21.83;;;13.18;;
37609;SDS011;23457;51.966;8.230;2022-11-14T17:27:18;21.67;;;13.25;;
37609;SDS011;23457;51.966;8.230;2022-11-14T17:30:03;23.27;;;13.05;;
37609;SDS011;23457;51.966;8.230;2022-11-14T17:32:49;20.63;;;12.80;;
37609;SDS011;23457;51.966;8.230;2022-11-14T17:35:40;21.13;;;12.95;;
37609;SDS011;23457;51.966;8.230;2022-11-14T17:38:25;25.67;;;13.35;;
37609;SDS011;23457;51.966;8.230;2022-11-14T17:41:11;21.20;;;13.15;;
37609;SDS011;23457;51.966;8.230;2022-11-14T17:43:56;25.08;;;14.45;;
37609;SDS011;23457;51.966;8.230;2022-11-14T17:46:45;22.80;;;13.57;;
37609;SDS011;23457;51.966;8.230;2022-11-14T17:49:32;21.95;;;13.73;;
37609;SDS011;23457;51.966;8.230;2022-11-14T17:52:17;21.48;;;13.65;;
37609;SDS011;23457;51.966;8.230;2022-11-14T17:55:03;22.42;;;12.85;;
37609;SDS011;23457;51.966;8.230;2022-11-14T17:57:48;22.65;;;13.75;;
37609;SDS011;23457;51.966;8.230;2022-11-14T18:00:33;22.92;;;15.27;;
37609;SDS011;23457;51.966;8.230;2022-11-14T18:03:19;22.40;;;14.50;;
37609;SDS011;23457;51.966;8.230;2022-11-14T18:06:09;23.77;;;14.57;;
37609;SDS011;23457;51.966;8.230;2022-11-14T18:08:56;20.92;;;12.80;;
37609;SDS011;23457;51.966;8.230;2022-11-14T18:11:41;20.15;;;12.50;;
37609;SDS011;23457;51.966;8.230;2022-11-14T18:14:26;18.85;;;12.05;;
37609;SDS011;23457;51.966;8.230;2022-11-14T18:17:12;19.85;;;12.15;;
37609;SDS011;23457;51.966;8.230;2022-11-14T18:19:57;19.50;;;13.00;;
37609;SDS011;23457;51.966;8.230;2022-11-14T18:22:45;19.23;;;12.30;;
37609;SDS011;23457;51.966;8.230;2022-11-14T18:25:30;18.67;;;12.00;;